createdAt,value
2023-01-19T00:01:01.295Z,77.12
2023-01-19T00:03:32.970Z,77.05
2023-01-19T00:06:32.816Z,76.86
2023-01-19T00:09:11.395Z,77.18
2023-01-19T00:11:58.812Z,77.61
2023-01-19T00:14:32.909Z,77.76
2023-01-19T00:17:00.161Z,77.80
2023-01-19T00:19:35.088Z,77.33
2023-01-19T00:22:10.838Z,77.27
2023-01-19T00:24:48.886Z,77.89
2023-01-19T00:27:25.005Z,77.99
2023-01-19T00:30:06.358Z,77.33
2023-01-19T00:32:35.739Z,77.79
2023-01-19T00:35:05.992Z,77.99
2023-01-19T00:37:46.899Z,77.78
2023-01-19T00:40:26.686Z,78.33
2023-01-19T00:43:05.624Z,78.15
2023-01-19T00:45:46.763Z,78.81
2023-01-19T00:51:09.505Z,79.47
2023-01-19T00:53:56.858Z,79.21
2023-01-19T00:56:45.737Z,79.08
2023-01-19T00:59:15.445Z,78.78
2023-01-19T01:01:49.776Z,78.24
2023-01-19T01:04:35.047Z,78.33
2023-01-19T01:07:10.865Z,77.51
2023-01-19T01:09:37.605Z,77.82
2023-01-19T01:12:04.559Z,78.42
2023-01-19T01:14:40.345Z,78.29
2023-01-19T01:17:11.671Z,78.15
2023-01-19T01:19:44.007Z,78.27
2023-01-19T01:22:10.763Z,77.69
2023-01-19T01:24:43.705Z,77.63
2023-01-19T01:30:05.588Z,78.19
2023-01-19T01:32:49.138Z,77.63
2023-01-19T01:35:29.013Z,77.61
2023-01-19T01:38:09.701Z,77.28
2023-01-19T01:40:43.102Z,77.57
2023-01-19T01:43:26.284Z,77.56
2023-01-19T01:46:20.232Z,78.04
2023-01-19T01:49:30.221Z,77.47
2023-01-19T01:52:02.608Z,77.62
2023-01-19T01:54:37.019Z,78.11
2023-01-19T01:57:12.386Z,78.17
2023-01-19T02:00:04.130Z,77.62
2023-01-19T02:03:04.597Z,77.75
2023-01-19T02:05:36.879Z,77.94
2023-01-19T02:08:48.563Z,76.75
2023-01-19T02:11:35.813Z,75.45
2023-01-19T02:14:13.525Z,73.28
2023-01-19T02:16:40.915Z,74.24
2023-01-19T02:19:19.668Z,74.09
2023-01-19T02:22:18.760Z,74.78
2023-01-19T02:24:45.709Z,75.38
2023-01-19T02:27:13.799Z,76.29
2023-01-19T02:29:52.144Z,76.69
2023-01-19T02:32:20.821Z,77.73
2023-01-19T02:34:48.924Z,77.39
2023-01-19T02:37:19.571Z,77.70
2023-01-19T02:39:56.951Z,77.75
2023-01-19T02:43:06.328Z,78.06
2023-01-19T02:48:35.741Z,77.95
2023-01-19T02:51:24.631Z,77.33
2023-01-19T02:54:23.148Z,76.45
2023-01-19T02:57:30.485Z,76.38
2023-01-19T03:00:42.279Z,76.22
2023-01-19T03:03:31.347Z,76.35
2023-01-19T03:06:51.172Z,76.91
2023-01-19T03:09:32.463Z,76.43
2023-01-19T03:12:22.129Z,75.36
2023-01-19T03:14:50.686Z,75.01
2023-01-19T03:17:19.097Z,74.45
2023-01-19T03:19:53.080Z,75.26
2023-01-19T03:22:29.225Z,75.06
2023-01-19T03:25:03.038Z,75.54
2023-01-19T03:27:47.088Z,75.77
2023-01-19T03:30:24.299Z,76.34
2023-01-19T03:33:03.471Z,76.16
2023-01-19T03:35:43.027Z,76.06
2023-01-19T03:38:15.910Z,76.05
2023-01-19T03:40:51.744Z,76.20
2023-01-19T03:43:28.776Z,75.50
2023-01-19T03:46:00.057Z,76.31
2023-01-19T03:51:14.522Z,75.45
2023-01-19T03:54:03.539Z,75.51
2023-01-19T03:56:59.673Z,75.50
2023-01-19T03:59:31.984Z,76.13
2023-01-19T04:02:05.857Z,75.42
2023-01-19T04:04:35.485Z,75.24
2023-01-19T04:07:05.099Z,75.68
2023-01-19T04:09:39.276Z,75.88
2023-01-19T04:12:20.024Z,75.82
2023-01-19T04:17:33.958Z,76.81
2023-01-19T04:20:03.839Z,76.64
2023-01-19T04:22:36.159Z,76.71
2023-01-19T04:25:07.368Z,76.09
2023-01-19T04:27:49.319Z,75.24
2023-01-19T04:30:19.215Z,74.30
2023-01-19T04:32:46.026Z,74.69
2023-01-19T04:35:23.383Z,74.83
2023-01-19T04:37:59.526Z,75.51
2023-01-19T04:40:36.923Z,76.12
2023-01-19T04:43:06.089Z,77.15
2023-01-19T04:45:33.339Z,77.85
2023-01-19T04:48:04.395Z,78.60
2023-01-19T04:50:33.191Z,77.92
2023-01-19T04:53:00.922Z,77.52
2023-01-19T04:55:28.240Z,77.84
2023-01-19T04:57:58.137Z,77.86
2023-01-19T05:00:24.772Z,78.06
2023-01-19T05:03:17.893Z,78.31
2023-01-19T05:05:52.833Z,77.89
2023-01-19T05:08:39.878Z,77.53
2023-01-19T05:11:16.838Z,76.66
2023-01-19T05:13:45.509Z,76.44
2023-01-19T05:16:23.620Z,77.58
2023-01-19T05:18:50.435Z,76.41
2023-01-19T05:21:17.029Z,74.94
2023-01-19T05:23:46.502Z,72.58
2023-01-19T05:26:14.984Z,72.65
2023-01-19T05:28:41.710Z,71.16
2023-01-19T05:31:08.481Z,70.09
2023-01-19T05:33:35.104Z,71.87
2023-01-19T05:36:02.324Z,73.51
2023-01-19T05:38:40.579Z,74.05
2023-01-19T05:41:10.892Z,75.33
2023-01-19T05:43:37.493Z,75.79
2023-01-19T05:46:05.309Z,75.88
2023-01-19T05:48:34.966Z,75.80
2023-01-19T05:51:04.136Z,76.55
2023-01-19T05:53:31.158Z,76.75
2023-01-19T05:56:10.647Z,76.95
2023-01-19T06:01:26.437Z,77.57
2023-01-19T06:03:53.082Z,77.00
2023-01-19T06:06:27.064Z,76.45
2023-01-19T06:08:57.030Z,76.44
2023-01-19T06:11:24.073Z,76.83
2023-01-19T06:14:00.123Z,77.52
2023-01-19T06:16:28.123Z,77.83
2023-01-19T06:18:58.619Z,78.44
2023-01-19T06:21:33.056Z,78.41
2023-01-19T06:24:06.344Z,77.75
2023-01-19T06:26:32.916Z,78.14
2023-01-19T06:29:01.003Z,78.63
2023-01-19T06:34:13.557Z,78.33
2023-01-19T06:36:51.277Z,78.06
2023-01-19T06:39:26.565Z,78.51
2023-01-19T06:41:56.029Z,78.93
2023-01-19T06:44:25.736Z,79.13
2023-01-19T06:49:42.104Z,79.11
2023-01-19T06:52:20.084Z,78.87
2023-01-19T06:54:46.984Z,78.75
2023-01-19T06:57:14.886Z,78.97
2023-01-19T06:59:42.191Z,79.23
2023-01-19T07:02:26.441Z,79.69
2023-01-19T07:05:01.868Z,79.70
2023-01-19T07:07:32.804Z,79.70
2023-01-19T07:09:59.674Z,79.71
2023-01-19T07:12:34.353Z,79.67
2023-01-19T07:15:22.696Z,78.69
2023-01-19T07:18:05.729Z,77.71
2023-01-19T07:20:34.345Z,77.66
2023-01-19T07:23:01.554Z,78.73
2023-01-19T07:25:29.310Z,78.99
2023-01-19T07:28:02.897Z,79.01
2023-01-19T07:30:38.262Z,78.73
2023-01-19T07:33:05.147Z,78.94
2023-01-19T07:35:43.601Z,79.43
2023-01-19T07:38:22.019Z,78.67
2023-01-19T07:40:59.653Z,78.24
2023-01-19T07:43:27.327Z,78.51
2023-01-19T07:46:04.652Z,77.93
2023-01-19T07:48:31.514Z,78.06
2023-01-19T07:51:05.732Z,78.03
2023-01-19T07:53:34.158Z,77.43
2023-01-19T07:56:09.008Z,77.26
2023-01-19T07:58:40.156Z,77.63
2023-01-19T08:01:12.191Z,78.19
2023-01-19T08:03:39.102Z,79.00
2023-01-19T08:06:09.464Z,79.45
2023-01-19T08:08:40.764Z,80.00
2023-01-19T08:11:18.046Z,79.75
2023-01-19T08:13:58.150Z,80.09
2023-01-19T08:16:24.947Z,80.56
2023-01-19T08:18:52.688Z,79.89
2023-01-19T08:21:30.312Z,80.28
2023-01-19T08:24:03.349Z,79.71
2023-01-19T08:26:32.937Z,80.33
2023-01-19T08:29:05.769Z,80.40
2023-01-19T08:31:32.790Z,81.03
2023-01-19T08:33:59.519Z,79.97
2023-01-19T08:36:32.603Z,80.13
2023-01-19T08:39:01.741Z,79.84
2023-01-19T08:41:28.476Z,79.69
2023-01-19T08:43:58.430Z,79.68
2023-01-19T08:46:25.479Z,79.39
2023-01-19T08:48:52.564Z,79.71
2023-01-19T08:51:31.402Z,79.37
2023-01-19T08:54:01.169Z,79.74
2023-01-19T08:59:26.080Z,79.77
2023-01-19T09:01:52.718Z,80.11
2023-01-19T09:04:21.103Z,79.47
2023-01-19T09:06:48.969Z,78.41
2023-01-19T09:09:15.715Z,77.81
2023-01-19T09:11:48.254Z,77.80
2023-01-19T09:14:14.962Z,78.04
2023-01-19T09:16:50.228Z,78.40
2023-01-19T09:19:18.909Z,78.61
2023-01-19T09:21:45.547Z,78.38
2023-01-19T09:24:13.669Z,77.91
2023-01-19T09:26:43.160Z,78.49
2023-01-19T09:29:09.841Z,77.38
2023-01-19T09:31:37.470Z,77.61
2023-01-19T09:34:04.104Z,76.49
2023-01-19T09:36:31.087Z,76.88
2023-01-19T09:39:01.581Z,77.17
2023-01-19T09:41:29.371Z,76.93
2023-01-19T09:44:03.778Z,77.16
2023-01-19T09:47:02.379Z,76.03
2023-01-19T09:49:54.532Z,76.36
2023-01-19T09:52:24.905Z,77.22
2023-01-19T09:55:06.491Z,76.81
2023-01-19T09:57:38.997Z,77.08
2023-01-19T10:00:25.684Z,77.53
2023-01-19T10:03:09.559Z,76.47
2023-01-19T10:05:50.787Z,77.07
2023-01-19T10:08:36.732Z,78.11
2023-01-19T10:11:10.224Z,78.68
2023-01-19T10:13:50.135Z,78.48
2023-01-19T10:16:42.232Z,77.68
2023-01-19T10:19:49.377Z,78.40
2023-01-19T10:22:28.732Z,78.56
2023-01-19T10:25:09.263Z,78.30
2023-01-19T10:27:38.205Z,78.60
2023-01-19T10:30:16.818Z,78.28
2023-01-19T10:32:50.113Z,77.84
2023-01-19T10:35:36.811Z,78.14
2023-01-19T10:38:08.860Z,78.96
2023-01-19T10:40:50.251Z,78.80
2023-01-19T10:43:35.301Z,78.92
2023-01-19T10:46:31.322Z,77.97
2023-01-19T10:48:58.585Z,78.11
2023-01-19T10:51:38.128Z,78.10
2023-01-19T10:54:28.845Z,78.12
2023-01-19T10:57:05.458Z,77.54
2023-01-19T11:00:09.494Z,77.94
2023-01-19T11:02:40.395Z,77.58
2023-01-19T11:05:28.336Z,78.20
2023-01-19T11:08:04.183Z,78.05
2023-01-19T11:10:35.000Z,77.54
2023-01-19T11:13:13.362Z,78.46
2023-01-19T11:15:58.074Z,77.75
2023-01-19T11:18:38.439Z,78.41
2023-01-19T11:21:30.671Z,77.93
2023-01-19T11:24:22.797Z,77.56
2023-01-19T11:27:03.008Z,78.00
2023-01-19T11:30:18.339Z,77.62
2023-01-19T11:32:46.271Z,77.15
2023-01-19T11:35:52.551Z,76.73
2023-01-19T11:38:31.992Z,77.17
2023-01-19T11:41:04.203Z,76.15
2023-01-19T11:43:48.192Z,76.09
2023-01-19T11:46:19.702Z,76.87
2023-01-19T11:49:02.350Z,76.73
2023-01-19T11:51:49.459Z,76.62
2023-01-19T11:54:30.535Z,76.49
2023-01-19T11:57:21.821Z,76.80
2023-01-19T11:59:51.210Z,77.02
2023-01-19T12:02:29.447Z,77.13
2023-01-19T12:05:13.521Z,76.85
2023-01-19T12:07:48.457Z,77.60
2023-01-19T12:10:28.320Z,76.97
2023-01-19T12:13:02.663Z,77.06
2023-01-19T12:15:46.911Z,77.19
2023-01-19T12:18:34.959Z,76.65
2023-01-19T12:21:06.449Z,76.45
2023-01-19T12:23:52.309Z,77.25
2023-01-19T12:26:24.832Z,76.21
2023-01-19T12:29:08.894Z,76.36
2023-01-19T12:31:51.861Z,75.78
2023-01-19T12:34:41.314Z,76.61
2023-01-19T12:37:32.226Z,77.13
2023-01-19T12:40:28.058Z,77.00
2023-01-19T12:43:05.687Z,76.05
2023-01-19T12:45:41.849Z,75.63
2023-01-19T12:48:33.018Z,76.34
2023-01-19T12:50:59.823Z,76.81
2023-01-19T12:53:36.971Z,76.51
2023-01-19T12:56:16.028Z,76.28
2023-01-19T12:58:52.456Z,75.64
2023-01-19T13:01:21.638Z,75.95
2023-01-19T13:04:29.391Z,75.96
2023-01-19T13:07:08.526Z,75.35
2023-01-19T13:09:39.357Z,74.51
2023-01-19T13:12:21.817Z,75.48
2023-01-19T13:15:38.046Z,75.91
2023-01-19T13:18:05.013Z,75.72
2023-01-19T13:20:47.023Z,75.41
2023-01-19T13:23:29.061Z,74.99
2023-01-19T13:26:05.807Z,75.24
2023-01-19T13:28:43.687Z,75.53
2023-01-19T13:31:15.884Z,75.62
2023-01-19T13:33:57.006Z,76.39
2023-01-19T13:36:41.093Z,75.96
2023-01-19T13:39:24.839Z,75.70
2023-01-19T13:42:05.065Z,75.70
2023-01-19T13:44:55.746Z,75.55
2023-01-19T13:47:36.992Z,74.96
2023-01-19T13:50:09.829Z,75.28
2023-01-19T13:52:43.968Z,75.58
2023-01-19T13:55:20.749Z,76.40
2023-01-19T13:57:54.784Z,76.40
2023-01-19T14:00:33.842Z,76.58
2023-01-19T14:03:03.118Z,76.40
2023-01-19T14:05:35.670Z,76.09
2023-01-19T14:11:36.085Z,76.29
2023-01-19T14:17:56.964Z,76.30
2023-01-19T14:20:33.425Z,77.01
2023-01-19T14:23:21.633Z,77.14
2023-01-19T14:25:49.085Z,76.59
2023-01-19T14:28:46.197Z,76.37
2023-01-19T14:31:30.439Z,75.84
2023-01-19T14:37:05.637Z,75.97
2023-01-19T14:39:46.630Z,76.68
2023-01-19T14:42:42.121Z,76.72
2023-01-19T14:46:06.671Z,77.09
2023-01-19T14:48:50.550Z,76.53
2023-01-19T14:51:29.667Z,76.15
2023-01-19T14:54:02.959Z,76.42
2023-01-19T14:56:56.696Z,77.09
2023-01-19T14:59:23.790Z,77.11
2023-01-19T15:01:53.441Z,77.08
2023-01-19T15:04:20.071Z,77.15
2023-01-19T15:06:47.368Z,78.05
2023-01-19T15:09:15.502Z,78.80
2023-01-19T15:11:59.315Z,78.96
2023-01-19T15:14:29.665Z,79.89
2023-01-19T15:17:07.303Z,80.18
2023-01-19T15:19:55.416Z,80.30
2023-01-19T15:22:38.683Z,80.41
2023-01-19T15:25:06.333Z,80.23
2023-01-19T15:27:33.029Z,79.37
2023-01-19T15:30:02.637Z,79.85
2023-01-19T15:32:48.776Z,80.44
2023-01-19T15:35:32.146Z,80.41
2023-01-19T15:38:09.908Z,80.58
2023-01-19T15:40:37.020Z,80.38
2023-01-19T15:43:16.448Z,81.01
2023-01-19T15:46:02.414Z,80.87
2023-01-19T15:48:30.546Z,81.00
2023-01-19T15:51:03.957Z,80.63
2023-01-19T15:53:32.187Z,80.99
2023-01-19T15:56:02.846Z,81.40
2023-01-19T15:58:30.003Z,81.76
2023-01-19T16:00:58.825Z,81.77
2023-01-19T16:03:26.153Z,82.24
2023-01-19T16:05:56.171Z,82.80
2023-01-19T16:08:26.278Z,83.20
2023-01-19T16:10:53.231Z,83.58
2023-01-19T16:13:29.595Z,83.91
2023-01-19T16:15:56.160Z,83.72
2023-01-19T16:18:24.138Z,83.29
2023-01-19T16:20:50.844Z,82.57
2023-01-19T16:23:17.541Z,82.68
2023-01-19T16:25:54.898Z,81.97
2023-01-19T16:28:21.509Z,81.94
2023-01-19T16:31:02.047Z,82.25
2023-01-19T16:33:29.012Z,82.18
2023-01-19T16:35:56.165Z,81.77
2023-01-19T16:38:25.968Z,81.84
2023-01-19T16:40:59.089Z,81.48
2023-01-19T16:43:32.063Z,80.58
2023-01-19T16:46:02.863Z,80.21
2023-01-19T16:48:32.321Z,80.44
2023-01-19T16:51:16.519Z,80.46
2023-01-19T16:53:54.770Z,80.88
2023-01-19T16:56:27.921Z,81.39
2023-01-19T16:59:01.146Z,81.55
2023-01-19T17:01:35.513Z,81.31
2023-01-19T17:04:12.290Z,81.42
2023-01-19T17:09:30.996Z,81.04
2023-01-19T17:12:27.934Z,81.61
2023-01-19T17:15:01.446Z,81.83
2023-01-19T17:17:31.428Z,82.63
2023-01-19T17:20:07.488Z,82.05
2023-01-19T17:23:05.244Z,82.15
2023-01-19T17:25:34.901Z,81.15
2023-01-19T17:28:01.564Z,81.92
2023-01-19T17:30:37.387Z,81.89
2023-01-19T17:33:04.066Z,82.81
2023-01-19T17:35:32.537Z,82.56
2023-01-19T17:38:07.983Z,83.17
2023-01-19T17:40:35.949Z,83.73
2023-01-19T17:43:04.335Z,82.67
2023-01-19T17:48:14.148Z,81.98
2023-01-19T17:50:40.883Z,82.63
2023-01-19T17:53:08.421Z,82.42
2023-01-19T17:55:38.150Z,82.52
2023-01-19T17:58:07.274Z,82.32
2023-01-19T18:00:36.458Z,82.24
2023-01-19T18:03:03.164Z,82.79
2023-01-19T18:05:30.096Z,82.78
2023-01-19T18:08:03.035Z,83.09
2023-01-19T18:10:29.828Z,83.05
2023-01-19T18:12:56.615Z,83.62
2023-01-19T18:15:23.268Z,83.81
2023-01-19T18:18:06.182Z,83.20
2023-01-19T18:20:32.862Z,82.97
2023-01-19T18:22:59.553Z,82.98
2023-01-19T18:25:28.424Z,83.01
2023-01-19T18:28:05.442Z,83.03
2023-01-19T18:30:34.956Z,82.28
2023-01-19T18:33:01.612Z,83.29
2023-01-19T18:35:28.920Z,83.54
2023-01-19T18:37:59.203Z,84.00
2023-01-19T18:40:25.916Z,83.63
2023-01-19T18:43:01.325Z,84.12
2023-01-19T18:45:40.630Z,83.82
2023-01-19T18:48:12.721Z,84.04
2023-01-19T18:50:45.459Z,83.80
2023-01-19T18:53:18.091Z,83.97
2023-01-19T18:55:59.737Z,83.85
2023-01-19T18:58:29.713Z,84.16
2023-01-19T19:00:57.412Z,84.41
2023-01-19T19:03:27.482Z,84.70
2023-01-19T19:05:57.363Z,84.64
2023-01-19T19:08:24.060Z,84.26
2023-01-19T19:10:50.831Z,84.13
2023-01-19T19:13:17.955Z,83.84
2023-01-19T19:15:44.660Z,83.70
2023-01-19T19:18:14.690Z,83.97
2023-01-19T19:20:44.492Z,84.04
2023-01-19T19:23:12.109Z,84.60
2023-01-19T19:25:38.974Z,84.61
2023-01-19T19:28:09.540Z,84.70
2023-01-19T19:30:39.512Z,84.66
2023-01-19T19:33:06.164Z,84.77
2023-01-19T19:35:32.732Z,83.48
2023-01-19T19:38:02.321Z,83.78
2023-01-19T19:40:29.276Z,84.88
2023-01-19T19:43:01.728Z,84.45
2023-01-19T19:45:37.527Z,84.09
2023-01-19T19:48:04.426Z,84.32
2023-01-19T19:50:34.642Z,84.11
2023-01-19T19:53:19.937Z,84.10
2023-01-19T19:56:03.636Z,83.69
2023-01-19T19:58:31.453Z,84.26
2023-01-19T20:00:58.158Z,84.40
2023-01-19T20:06:13.432Z,84.87
2023-01-19T20:08:40.772Z,84.55
2023-01-19T20:11:12.550Z,85.31
2023-01-19T20:13:44.042Z,85.26
2023-01-19T20:16:14.114Z,84.72
2023-01-19T20:18:42.995Z,84.21
2023-01-19T20:21:15.763Z,85.31
2023-01-19T20:23:43.657Z,85.46
2023-01-19T20:26:14.313Z,85.06
2023-01-19T20:28:41.475Z,85.14
2023-01-19T20:31:29.228Z,85.00
2023-01-19T20:33:57.805Z,85.47
2023-01-19T20:36:30.839Z,85.50
2023-01-19T20:38:59.142Z,85.17
2023-01-19T20:41:27.829Z,85.26
2023-01-19T20:43:55.182Z,85.70
2023-01-19T20:46:22.080Z,85.92
2023-01-19T20:48:53.811Z,85.20
2023-01-19T20:51:20.890Z,85.13
2023-01-19T20:53:50.337Z,84.39
2023-01-19T20:56:17.102Z,84.54
2023-01-19T20:58:43.911Z,85.15
2023-01-19T21:01:26.797Z,84.80
2023-01-19T21:03:54.111Z,84.38
2023-01-19T21:06:31.957Z,83.89
2023-01-19T21:09:11.623Z,84.18
2023-01-19T21:11:38.907Z,84.73
2023-01-19T21:14:06.859Z,84.88
2023-01-19T21:16:40.490Z,84.31
2023-01-19T21:19:07.210Z,83.97
2023-01-19T21:21:34.087Z,84.05
2023-01-19T21:24:04.482Z,84.48
2023-01-19T21:26:33.310Z,84.32
2023-01-19T21:29:02.347Z,84.32
2023-01-19T21:31:29.887Z,84.84
2023-01-19T21:34:02.731Z,84.59
2023-01-19T21:36:29.803Z,85.03
2023-01-19T21:39:00.729Z,84.50
2023-01-19T21:41:30.243Z,84.85
2023-01-19T21:43:58.572Z,84.67
2023-01-19T21:46:33.362Z,84.54
2023-01-19T21:49:05.067Z,84.61
2023-01-19T21:51:37.434Z,85.08
2023-01-19T21:54:05.751Z,85.75
2023-01-19T21:56:36.428Z,85.61
2023-01-19T21:59:10.731Z,85.10
2023-01-19T22:01:37.665Z,85.74
2023-01-19T22:04:04.468Z,85.37
2023-01-19T22:06:34.472Z,85.14
2023-01-19T22:09:07.054Z,85.09
2023-01-19T22:11:39.621Z,85.17
2023-01-19T22:14:09.218Z,85.23
2023-01-19T22:16:39.336Z,85.66
2023-01-19T22:19:08.207Z,85.28
2023-01-19T22:21:38.292Z,85.15
2023-01-19T22:24:15.001Z,85.29
2023-01-19T22:26:41.872Z,85.01
2023-01-19T22:29:12.113Z,85.00
2023-01-19T22:31:39.970Z,85.18
2023-01-19T22:34:19.960Z,85.27
2023-01-19T22:39:36.178Z,86.16
2023-01-19T22:42:18.410Z,85.54
2023-01-19T22:44:46.023Z,85.91
2023-01-19T22:47:12.893Z,86.03
2023-01-19T22:49:40.785Z,85.61
2023-01-19T22:52:07.367Z,85.72
2023-01-19T22:54:40.511Z,85.55
2023-01-19T22:57:13.228Z,85.59
2023-01-19T22:59:41.069Z,85.92
2023-01-19T23:02:13.050Z,86.03
2023-01-19T23:04:39.815Z,86.32
2023-01-19T23:07:09.880Z,86.64
2023-01-19T23:09:38.072Z,86.30
2023-01-19T23:12:05.149Z,86.61
2023-01-19T23:14:31.962Z,86.14
2023-01-19T23:17:01.243Z,85.64
2023-01-19T23:19:48.529Z,86.24
2023-01-19T23:22:17.147Z,86.11
2023-01-19T23:24:43.700Z,86.55
2023-01-19T23:27:11.925Z,86.69
2023-01-19T23:29:44.585Z,85.80
2023-01-19T23:32:15.292Z,85.76
2023-01-19T23:34:49.087Z,85.73
2023-01-19T23:37:24.473Z,85.79
2023-01-19T23:39:58.183Z,85.45
2023-01-19T23:42:27.811Z,85.81
2023-01-19T23:44:57.739Z,85.36
2023-01-19T23:47:49.236Z,85.42
2023-01-19T23:50:18.996Z,85.55
2023-01-19T23:52:45.581Z,86.14
2023-01-19T23:55:13.660Z,85.41
2023-01-19T23:57:40.425Z,84.89
